Time;durP1;ratioP1;P1;durP2;ratioP2;P2;SDS_P1;SDS_P2;PMS_P1;PMS_P2;Temp;Humidity;BMP_temperature;BMP_pressure;BME280_temperature;BME280_humidity;BME280_pressure;Samples;Min_cycle;Max_cycle;Signal;HPM_P1;HPM_P2
2023/07/03 00:01:40;;;;;;;25.70;12.90;;;;;;;;;;5143253;27;20358;-70
2023/07/03 00:04:10;;;;;;;24.10;13.50;;;;;;;;;;5143534;27;20198;-70
2023/07/03 00:06:36;;;;;;;22.50;12.65;;;;;;;;;;5143527;27;20206;-70
2023/07/03 00:09:03;;;;;;;28.63;14.15;;;;;;;;;;5143551;27;20194;-70
2023/07/03 00:11:29;;;;;;;19.63;13.02;;;;;;;;;;5143061;27;20224;-70
2023/07/03 00:13:55;;;;;;;21.40;12.57;;;;;;;;;;5143359;27;20205;-70
2023/07/03 00:16:23;;;;;;;20.80;12.10;;;;;;;;;;5143181;27;20261;-70
2023/07/03 00:18:49;;;;;;;29.55;13.70;;;;;;;;;;5143743;27;20194;-70
2023/07/03 00:21:15;;;;;;;24.83;13.20;;;;;;;;;;5142974;27;20190;-70
2023/07/03 00:23:42;;;;;;;21.95;13.38;;;;;;;;;;5143200;27;20265;-70
2023/07/03 00:26:08;;;;;;;23.35;13.07;;;;;;;;;;5143194;27;20194;-70
2023/07/03 00:28:34;;;;;;;25.30;13.50;;;;;;;;;;5143126;27;20222;-70
2023/07/03 00:31:01;;;;;;;23.63;13.10;;;;;;;;;;5142784;27;20225;-70
2023/07/03 00:33:28;;;;;;;19.77;12.32;;;;;;;;;;5143443;27;20502;-70
2023/07/03 00:35:54;;;;;;;25.17;13.23;;;;;;;;;;5143428;27;20614;-70
2023/07/03 00:38:21;;;;;;;26.30;13.52;;;;;;;;;;5143179;27;20497;-70
2023/07/03 00:40:47;;;;;;;27.20;13.27;;;;;;;;;;5142876;27;20236;-70
2023/07/03 00:43:14;;;;;;;25.13;13.75;;;;;;;;;;5143165;27;20203;-70
2023/07/03 00:45:40;;;;;;;24.73;14.20;;;;;;;;;;5142760;27;20517;-70
2023/07/03 00:48:06;;;;;;;23.80;14.10;;;;;;;;;;5142989;27;20205;-70
2023/07/03 00:50:35;;;;;;;22.08;12.38;;;;;;;;;;5142818;27;20214;-70
2023/07/03 00:53:02;;;;;;;22.50;13.35;;;;;;;;;;5143022;27;20194;-70
2023/07/03 00:55:31;;;;;;;25.52;14.05;;;;;;;;;;5142937;27;20276;-70
2023/07/03 00:57:58;;;;;;;27.83;13.73;;;;;;;;;;5142928;27;20195;-70
2023/07/03 01:00:26;;;;;;;26.15;13.98;;;;;;;;;;5145725;27;20209;-70
2023/07/03 01:02:58;;;;;;;26.00;14.00;;;;;;;;;;5147076;27;20209;-70
2023/07/03 01:05:28;;;;;;;27.38;13.52;;;;;;;;;;5146948;27;20554;-70
2023/07/03 01:07:56;;;;;;;25.23;14.07;;;;;;;;;;5146734;27;20203;-70
2023/07/03 01:10:23;;;;;;;24.33;14.02;;;;;;;;;;5146305;27;20455;-70
2023/07/03 01:12:51;;;;;;;25.23;13.05;;;;;;;;;;5146531;27;20202;-70
2023/07/03 01:15:20;;;;;;;28.50;13.35;;;;;;;;;;5146639;27;20244;-70
2023/07/03 01:17:48;;;;;;;22.75;13.27;;;;;;;;;;5146663;27;20498;-70
2023/07/03 01:20:15;;;;;;;24.08;13.02;;;;;;;;;;5146713;27;20191;-70
2023/07/03 01:22:44;;;;;;;19.85;12.82;;;;;;;;;;5146342;27;20194;-70
2023/07/03 01:25:14;;;;;;;26.25;14.00;;;;;;;;;;5146514;27;20222;-70
2023/07/03 01:27:42;;;;;;;25.38;14.18;;;;;;;;;;5146041;27;20215;-70
2023/07/03 01:30:10;;;;;;;24.90;14.50;;;;;;;;;;5146457;27;20416;-70
2023/07/03 01:32:39;;;;;;;26.60;15.07;;;;;;;;;;5146090;27;20276;-70
2023/07/03 01:35:08;;;;;;;27.90;14.90;;;;;;;;;;5145663;27;20194;-70
2023/07/03 01:37:35;;;;;;;26.17;15.50;;;;;;;;;;5146106;27;20239;-70
2023/07/03 01:40:02;;;;;;;27.90;14.35;;;;;;;;;;5146121;27;20198;-70
2023/07/03 01:42:30;;;;;;;24.73;14.13;;;;;;;;;;5145858;27;20261;-70
2023/07/03 01:44:57;;;;;;;30.20;15.38;;;;;;;;;;5146164;27;20236;-70
2023/07/03 01:47:23;;;;;;;25.02;14.55;;;;;;;;;;5145801;27;20183;-70
2023/07/03 01:49:49;;;;;;;23.95;14.15;;;;;;;;;;5145989;27;20202;-70
2023/07/03 01:52:18;;;;;;;26.30;14.75;;;;;;;;;;5145584;27;20222;-70
2023/07/03 01:54:48;;;;;;;29.23;14.52;;;;;;;;;;5146035;27;20194;-70
2023/07/03 01:57:17;;;;;;;22.42;15.27;;;;;;;;;;5145824;27;20203;-70
2023/07/03 01:59:47;;;;;;;25.50;14.40;;;;;;;;;;5145638;27;20528;-70
2023/07/03 02:02:16;;;;;;;27.67;14.93;;;;;;;;;;5145316;27;20381;-70
2023/07/03 02:04:44;;;;;;;24.23;14.23;;;;;;;;;;5145674;27;20525;-70
2023/07/03 02:07:11;;;;;;;23.80;14.38;;;;;;;;;;5145529;27;20202;-70
2023/07/03 02:09:39;;;;;;;25.20;14.10;;;;;;;;;;5145005;27;20195;-70
2023/07/03 02:12:07;;;;;;;29.00;14.52;;;;;;;;;;5145309;27;20469;-70
2023/07/03 02:14:34;;;;;;;27.52;13.95;;;;;;;;;;5145350;27;20193;-70
2023/07/03 02:17:19;;;;;;;25.38;13.88;;;;;;;;;;5145371;27;20378;-70
2023/07/03 02:19:47;;;;;;;24.13;13.65;;;;;;;;;;5145380;27;20194;-70
2023/07/03 02:22:13;;;;;;;22.83;13.68;;;;;;;;;;5145147;27;20199;-70
2023/07/03 02:24:40;;;;;;;25.42;13.85;;;;;;;;;;5145321;27;20210;-70
2023/07/03 02:27:06;;;;;;;27.30;14.10;;;;;;;;;;5145024;27;20222;-70
2023/07/03 02:29:33;;;;;;;22.63;13.50;;;;;;;;;;5145308;27;20275;-70
2023/07/03 02:31:59;;;;;;;24.85;14.75;;;;;;;;;;5144860;27;20210;-70
2023/07/03 02:34:25;;;;;;;25.85;13.95;;;;;;;;;;5145176;27;20198;-70
2023/07/03 02:36:58;;;;;;;24.27;12.90;;;;;;;;;;5144920;27;20404;-70
2023/07/03 02:39:24;;;;;;;26.80;14.13;;;;;;;;;;5144830;27;20267;-70
2023/07/03 02:41:51;;;;;;;23.17;14.25;;;;;;;;;;5144650;27;20205;-70
2023/07/03 02:44:17;;;;;;;22.77;13.68;;;;;;;;;;5144740;27;20197;-70
2023/07/03 02:46:43;;;;;;;19.85;13.65;;;;;;;;;;5144941;27;20274;-70
2023/07/03 02:49:10;;;;;;;21.13;13.68;;;;;;;;;;5144663;27;20199;-70
2023/07/03 02:51:36;;;;;;;25.98;13.15;;;;;;;;;;5144517;27;20207;-70
2023/07/03 02:54:05;;;;;;;23.65;13.40;;;;;;;;;;5144452;27;20201;-70
2023/07/03 02:56:31;;;;;;;23.85;13.27;;;;;;;;;;5144531;27;20191;-70
2023/07/03 02:58:57;;;;;;;25.35;14.35;;;;;;;;;;5144541;27;20195;-70
2023/07/03 03:01:23;;;;;;;24.40;14.88;;;;;;;;;;5144293;27;20221;-70
2023/07/03 03:03:50;;;;;;;33.33;15.25;;;;;;;;;;5144432;27;20199;-70
2023/07/03 03:06:16;;;;;;;24.90;14.18;;;;;;;;;;5144300;27;20225;-70
2023/07/03 03:08:42;;;;;;;27.77;14.38;;;;;;;;;;5144269;27;20202;-70
2023/07/03 03:11:10;;;;;;;25.67;13.40;;;;;;;;;;5144167;27;20218;-70
2023/07/03 03:13:36;;;;;;;25.85;13.55;;;;;;;;;;5144312;27;20261;-70
2023/07/03 03:16:02;;;;;;;24.13;13.88;;;;;;;;;;5144185;27;20517;-70
2023/07/03 03:18:29;;;;;;;26.60;13.75;;;;;;;;;;5144136;27;20213;-70
2023/07/03 03:20:55;;;;;;;25.90;14.18;;;;;;;;;;5143817;27;20458;-70
2023/07/03 03:23:21;;;;;;;24.15;14.07;;;;;;;;;;5143322;27;20510;-70
2023/07/03 03:25:48;;;;;;;23.00;13.45;;;;;;;;;;5144239;27;20217;-70
2023/07/03 03:28:15;;;;;;;21.45;14.00;;;;;;;;;;5144101;27;20590;-70
2023/07/03 03:30:43;;;;;;;20.77;13.35;;;;;;;;;;5143740;27;20194;-70
2023/07/03 03:33:09;;;;;;;21.85;13.48;;;;;;;;;;5143714;27;20214;-70
2023/07/03 03:35:35;;;;;;;21.95;13.70;;;;;;;;;;5143859;27;20198;-70
2023/07/03 03:38:01;;;;;;;23.63;13.30;;;;;;;;;;5143811;27;20262;-70
2023/07/03 03:40:28;;;;;;;26.25;14.13;;;;;;;;;;5143681;27;20195;-70
2023/07/03 03:42:54;;;;;;;20.95;12.35;;;;;;;;;;5143873;27;20191;-70
2023/07/03 03:45:22;;;;;;;26.25;13.23;;;;;;;;;;5143884;27;20202;-70
2023/07/03 03:47:48;;;;;;;21.33;12.82;;;;;;;;;;5143945;27;20201;-70
2023/07/03 03:50:15;;;;;;;23.00;13.00;;;;;;;;;;5143860;27;20194;-70
2023/07/03 03:52:41;;;;;;;23.70;13.73;;;;;;;;;;5143603;27;20285;-70
2023/07/03 03:55:07;;;;;;;24.67;13.02;;;;;;;;;;5143874;27;20379;-70
2023/07/03 03:57:34;;;;;;;24.60;13.43;;;;;;;;;;5143558;27;20226;-70
2023/07/03 04:00:00;;;;;;;23.58;13.40;;;;;;;;;;5143824;27;20202;-70
2023/07/03 04:02:28;;;;;;;23.30;13.27;;;;;;;;;;5143482;27;20190;-70
2023/07/03 04:04:54;;;;;;;25.67;13.43;;;;;;;;;;5143450;27;20194;-70
2023/07/03 04:07:20;;;;;;;23.67;13.27;;;;;;;;;;5143673;27;20498;-70
2023/07/03 04:09:46;;;;;;;25.73;14.05;;;;;;;;;;5143910;27;20201;-70
2023/07/03 04:12:13;;;;;;;21.85;13.23;;;;;;;;;;5143518;27;20229;-70
2023/07/03 04:14:39;;;;;;;24.80;13.15;;;;;;;;;;5143357;27;20197;-70
2023/07/03 04:17:08;;;;;;;22.10;13.50;;;;;;;;;;5144519;27;20267;-73
2023/07/03 04:19:36;;;;;;;20.13;12.73;;;;;;;;;;5144419;27;20194;-73
2023/07/03 04:22:02;;;;;;;26.70;12.88;;;;;;;;;;5144409;27;20190;-73
2023/07/03 04:24:29;;;;;;;21.10;12.68;;;;;;;;;;5144547;27;20266;-74
2023/07/03 04:26:55;;;;;;;24.25;13.45;;;;;;;;;;5144554;27;20217;-73
2023/07/03 04:29:22;;;;;;;22.40;12.60;;;;;;;;;;5144156;27;20203;-73
2023/07/03 04:31:48;;;;;;;24.30;13.30;;;;;;;;;;5144348;27;20271;-73
2023/07/03 04:34:14;;;;;;;22.75;12.13;;;;;;;;;;5147514;27;20265;-73
2023/07/03 04:36:43;;;;;;;22.35;11.90;;;;;;;;;;5148576;27;20201;-73
2023/07/03 04:39:09;;;;;;;20.63;12.65;;;;;;;;;;5148967;27;20194;-73
2023/07/03 04:41:35;;;;;;;22.40;13.20;;;;;;;;;;5148039;27;20197;-73
2023/07/03 04:44:02;;;;;;;21.38;12.57;;;;;;;;;;5147828;27;20201;-73
2023/07/03 04:46:28;;;;;;;22.23;12.57;;;;;;;;;;5147881;27;20384;-73
2023/07/03 04:48:59;;;;;;;24.15;13.20;;;;;;;;;;5147713;27;20194;-73
2023/07/03 04:51:25;;;;;;;20.73;13.00;;;;;;;;;;5148340;27;20186;-73
2023/07/03 04:53:53;;;;;;;21.98;12.32;;;;;;;;;;5148547;27;20493;-73
2023/07/03 04:56:19;;;;;;;25.70;14.00;;;;;;;;;;5147989;27;20231;-73
2023/07/03 04:58:47;;;;;;;21.13;12.60;;;;;;;;;;5147721;27;20195;-73
2023/07/03 05:01:14;;;;;;;26.27;13.40;;;;;;;;;;5147682;27;20194;-73
2023/07/03 05:03:40;;;;;;;22.88;12.75;;;;;;;;;;5147907;27;20400;-73
2023/07/03 05:06:06;;;;;;;21.67;12.98;;;;;;;;;;5147824;27;20390;-73
2023/07/03 05:08:33;;;;;;;21.60;13.02;;;;;;;;;;5147718;27;20194;-73
2023/07/03 05:11:00;;;;;;;20.13;12.25;;;;;;;;;;5147942;27;20248;-73
2023/07/03 05:13:27;;;;;;;20.88;12.07;;;;;;;;;;5148168;27;20218;-73
2023/07/03 05:15:53;;;;;;;25.40;12.70;;;;;;;;;;5148054;27;20202;-72
2023/07/03 05:18:19;;;;;;;22.15;13.18;;;;;;;;;;5148082;27;20411;-72
2023/07/03 05:20:47;;;;;;;22.23;12.25;;;;;;;;;;5147823;27;20273;-72
2023/07/03 05:23:15;;;;;;;21.08;13.00;;;;;;;;;;5147788;27;20194;-72
2023/07/03 05:25:41;;;;;;;21.17;12.25;;;;;;;;;;5146320;27;20202;-72
2023/07/03 05:28:09;;;;;;;24.58;12.48;;;;;;;;;;5146559;27;20218;-72
2023/07/03 05:30:35;;;;;;;22.85;13.00;;;;;;;;;;5146563;27;20209;-72
2023/07/03 05:33:02;;;;;;;21.98;12.80;;;;;;;;;;5146052;27;20229;-72
2023/07/03 05:35:28;;;;;;;20.27;12.52;;;;;;;;;;5145784;27;20198;-72
2023/07/03 05:37:54;;;;;;;24.65;13.50;;;;;;;;;;5146006;27;20390;-72
2023/07/03 05:40:21;;;;;;;25.58;12.85;;;;;;;;;;5145544;27;20194;-72
2023/07/03 05:42:47;;;;;;;21.92;12.02;;;;;;;;;;5145723;27;20506;-72
2023/07/03 05:45:15;;;;;;;26.15;13.40;;;;;;;;;;5145372;27;20198;-72
2023/07/03 05:47:41;;;;;;;24.33;12.80;;;;;;;;;;5146692;27;20195;-72
2023/07/03 05:50:08;;;;;;;27.33;12.63;;;;;;;;;;5146619;27;20195;-72
2023/07/03 05:52:36;;;;;;;21.48;12.05;;;;;;;;;;5146606;27;20418;-72
2023/07/03 05:55:02;;;;;;;23.48;12.48;;;;;;;;;;5146564;27;20194;-72
2023/07/03 05:57:29;;;;;;;25.52;12.70;;;;;;;;;;5146125;27;20513;-72
2023/07/03 05:59:55;;;;;;;22.45;12.07;;;;;;;;;;5146349;27;20450;-72
2023/07/03 06:02:22;;;;;;;18.73;11.43;;;;;;;;;;5146490;27;20194;-72
2023/07/03 06:04:49;;;;;;;24.73;12.52;;;;;;;;;;5146346;27;20198;-72
2023/07/03 06:07:15;;;;;;;20.73;11.68;;;;;;;;;;5146212;27;20194;-72
2023/07/03 06:09:42;;;;;;;24.10;11.82;;;;;;;;;;5146159;27;20201;-72
2023/07/03 06:12:08;;;;;;;25.52;12.43;;;;;;;;;;5146059;27;20224;-72
2023/07/03 06:14:35;;;;;;;19.17;11.52;;;;;;;;;;5146206;27;20229;-72
2023/07/03 06:17:01;;;;;;;24.15;11.10;;;;;;;;;;5146442;27;20194;-72
2023/07/03 06:19:29;;;;;;;22.95;12.00;;;;;;;;;;5145920;27;20201;-72
2023/07/03 06:21:56;;;;;;;19.77;10.68;;;;;;;;;;5145811;27;20198;-72
2023/07/03 06:24:22;;;;;;;23.55;10.93;;;;;;;;;;5145760;27;20194;-72
2023/07/03 06:26:49;;;;;;;22.17;10.68;;;;;;;;;;5145683;27;20202;-72
2023/07/03 06:29:15;;;;;;;22.42;10.32;;;;;;;;;;5145947;27;20194;-72
2023/07/03 06:31:41;;;;;;;21.67;10.68;;;;;;;;;;5145654;27;20198;-72
2023/07/03 06:34:08;;;;;;;25.67;11.65;;;;;;;;;;5145663;27;20218;-72
2023/07/03 06:36:35;;;;;;;22.33;11.93;;;;;;;;;;5145476;27;20212;-72
2023/07/03 06:39:04;;;;;;;25.77;12.10;;;;;;;;;;5147549;27;20198;-58
2023/07/03 06:41:31;;;;;;;29.42;12.38;;;;;;;;;;5143721;27;20195;-58
2023/07/03 06:43:57;;;;;;;44.35;12.80;;;;;;;;;;5143682;27;20516;-58
2023/07/03 06:46:24;;;;;;;16.63;9.10;;;;;;;;;;5143688;27;20195;-58
2023/07/03 06:48:50;;;;;;;15.82;8.45;;;;;;;;;;5143320;27;20208;-58
2023/07/03 06:51:16;;;;;;;15.75;8.30;;;;;;;;;;5143825;27;20198;-58
2023/07/03 06:53:44;;;;;;;19.40;8.45;;;;;;;;;;5134128;27;20222;-59
2023/07/03 06:56:10;;;;;;;20.63;8.68;;;;;;;;;;5127615;27;20782;-57
2023/07/03 06:58:37;;;;;;;17.83;8.38;;;;;;;;;;5136137;27;20201;-58
2023/07/03 07:01:07;;;;;;;13.75;7.80;;;;;;;;;;5135936;27;20217;-58
2023/07/03 07:03:33;;;;;;;14.98;8.07;;;;;;;;;;5135999;27;20548;-61
2023/07/03 07:06:07;;;;;;;14.57;8.00;;;;;;;;;;5136530;27;20514;-58
2023/07/03 07:08:33;;;;;;;14.15;8.40;;;;;;;;;;5135082;27;20281;-58
2023/07/03 07:11:01;;;;;;;15.50;7.93;;;;;;;;;;5135909;27;20498;-58
2023/07/03 07:13:27;;;;;;;15.15;7.78;;;;;;;;;;5138275;27;20481;-57
2023/07/03 07:15:53;;;;;;;18.58;8.57;;;;;;;;;;5157369;27;20213;-57
2023/07/03 07:18:20;;;;;;;20.95;7.82;;;;;;;;;;5159494;27;20212;-57
2023/07/03 07:20:46;;;;;;;14.73;8.32;;;;;;;;;;5135930;27;20217;-57
2023/07/03 07:23:12;;;;;;;17.75;7.93;;;;;;;;;;5135933;27;20545;-57
2023/07/03 07:25:38;;;;;;;15.15;8.20;;;;;;;;;;5135286;27;20404;-57
2023/07/03 07:28:06;;;;;;;17.98;8.40;;;;;;;;;;5136075;27;20228;-58
2023/07/03 07:30:32;;;;;;;15.52;8.05;;;;;;;;;;5132839;27;20198;-58
2023/07/03 07:32:59;;;;;;;15.35;8.52;;;;;;;;;;5137484;27;20230;-58
2023/07/03 07:35:25;;;;;;;16.73;7.25;;;;;;;;;;5137207;27;20222;-58
2023/07/03 07:37:51;;;;;;;11.75;7.22;;;;;;;;;;5137528;27;20241;-58
2023/07/03 07:40:17;;;;;;;14.70;7.80;;;;;;;;;;5137823;27;20217;-58
2023/07/03 07:42:44;;;;;;;13.65;7.43;;;;;;;;;;5137569;27;20216;-59
2023/07/03 07:45:12;;;;;;;18.02;7.38;;;;;;;;;;5137971;27;20601;-59
2023/07/03 07:47:38;;;;;;;18.73;8.23;;;;;;;;;;5137256;27;20210;-58
2023/07/03 07:50:05;;;;;;;18.52;7.65;;;;;;;;;;5136608;27;20227;-58
2023/07/03 07:52:31;;;;;;;17.30;9.18;;;;;;;;;;5130033;27;20209;-58
2023/07/03 07:54:58;;;;;;;19.08;7.90;;;;;;;;;;5136749;27;20421;-57
2023/07/03 07:57:24;;;;;;;16.48;8.38;;;;;;;;;;5137345;27;20457;-58
2023/07/03 07:59:50;;;;;;;12.50;7.57;;;;;;;;;;5136910;27;20218;-58
2023/07/03 08:02:18;;;;;;;16.38;8.63;;;;;;;;;;5136938;27;20533;-58
2023/07/03 08:04:45;;;;;;;18.13;8.02;;;;;;;;;;5137202;27;20551;-58
2023/07/03 08:07:11;;;;;;;17.65;8.20;;;;;;;;;;5136544;27;20443;-57
2023/07/03 08:09:38;;;;;;;17.60;8.07;;;;;;;;;;5136652;27;20209;-58
2023/07/03 08:12:05;;;;;;;15.57;7.60;;;;;;;;;;5136513;27;20210;-58
2023/07/03 08:14:31;;;;;;;21.55;8.15;;;;;;;;;;5137130;27;20233;-58
2023/07/03 08:16:58;;;;;;;19.55;8.00;;;;;;;;;;5137044;27;20688;-57
2023/07/03 08:19:25;;;;;;;18.65;7.72;;;;;;;;;;5136855;27;20229;-58
2023/07/03 08:21:52;;;;;;;21.65;8.77;;;;;;;;;;5136011;27;20563;-57
2023/07/03 08:24:19;;;;;;;13.77;7.80;;;;;;;;;;5137521;27;20206;-58
2023/07/03 08:26:49;;;;;;;16.42;8.02;;;;;;;;;;5136395;27;20210;-58
2023/07/03 08:29:15;;;;;;;14.27;7.80;;;;;;;;;;5136599;27;20251;-58
2023/07/03 08:31:41;;;;;;;17.33;8.82;;;;;;;;;;5135963;27;20210;-58
2023/07/03 08:34:09;;;;;;;16.55;8.98;;;;;;;;;;5136554;27;20229;-58
2023/07/03 08:36:36;;;;;;;16.88;9.45;;;;;;;;;;5135905;27;20432;-57
2023/07/03 08:39:03;;;;;;;18.35;7.97;;;;;;;;;;5136535;27;20221;-58
2023/07/03 08:41:30;;;;;;;17.92;8.57;;;;;;;;;;5136114;27;20289;-58
2023/07/03 08:43:59;;;;;;;14.50;7.85;;;;;;;;;;5137128;27;20521;-58
2023/07/03 08:46:27;;;;;;;16.98;8.02;;;;;;;;;;5136478;27;20198;-58
2023/07/03 08:48:55;;;;;;;14.75;7.47;;;;;;;;;;5136450;27;20213;-57
2023/07/03 08:51:23;;;;;;;17.20;7.55;;;;;;;;;;5136284;27;20210;-58
2023/07/03 08:53:52;;;;;;;16.23;8.32;;;;;;;;;;5136810;27;20218;-56
2023/07/03 08:56:20;;;;;;;21.67;7.80;;;;;;;;;;5123180;28;20221;-58
2023/07/03 08:58:47;;;;;;;19.90;8.35;;;;;;;;;;5136235;27;20210;-58
2023/07/03 09:01:17;;;;;;;17.75;8.35;;;;;;;;;;5135939;27;20217;-57
2023/07/03 09:03:47;;;;;;;19.63;8.73;;;;;;;;;;5136348;27;20205;-57
2023/07/03 09:06:16;;;;;;;19.33;8.88;;;;;;;;;;5135966;27;20233;-57
2023/07/03 09:08:47;;;;;;;17.85;8.27;;;;;;;;;;5136677;27;20210;-58
2023/07/03 09:11:16;;;;;;;17.05;8.85;;;;;;;;;;5135176;27;20202;-57
2023/07/03 09:13:45;;;;;;;17.55;7.93;;;;;;;;;;5136491;27;20666;-57
2023/07/03 09:16:13;;;;;;;16.50;8.68;;;;;;;;;;5136124;27;20214;-58
2023/07/03 09:18:48;;;;;;;21.30;9.07;;;;;;;;;;5136188;27;20217;-58
2023/07/03 09:21:14;;;;;;;22.52;9.30;;;;;;;;;;5138410;27;20233;-58
2023/07/03 09:23:43;;;;;;;17.77;8.40;;;;;;;;;;5141239;27;20202;-58
2023/07/03 09:26:14;;;;;;;16.98;8.85;;;;;;;;;;5141128;27;20506;-58
2023/07/03 09:28:42;;;;;;;20.08;9.38;;;;;;;;;;5143460;27;20221;-58
2023/07/03 09:31:08;;;;;;;18.83;9.25;;;;;;;;;;5142768;27;20202;-58
2023/07/03 09:33:35;;;;;;;21.40;8.52;;;;;;;;;;5142784;27;20286;-56
2023/07/03 09:36:02;;;;;;;18.50;9.40;;;;;;;;;;5142907;27;20206;-57
2023/07/03 09:38:29;;;;;;;18.15;8.75;;;;;;;;;;5143059;27;20529;-58
2023/07/03 09:40:55;;;;;;;15.07;8.13;;;;;;;;;;5142579;27;20206;-57
2023/07/03 09:43:23;;;;;;;19.13;8.45;;;;;;;;;;5142688;27;20209;-57
2023/07/03 09:45:51;;;;;;;15.00;7.82;;;;;;;;;;5143245;27;20201;-58
2023/07/03 09:48:19;;;;;;;16.13;8.00;;;;;;;;;;5143492;27;20273;-58
2023/07/03 09:50:45;;;;;;;15.77;7.72;;;;;;;;;;5142293;27;20246;-57
2023/07/03 09:53:15;;;;;;;21.30;7.95;;;;;;;;;;5143689;27;20232;-58
2023/07/03 09:55:41;;;;;;;21.92;7.90;;;;;;;;;;5135388;27;20521;-57
2023/07/03 09:58:11;;;;;;;14.05;7.95;;;;;;;;;;5143289;27;20206;-58
2023/07/03 10:00:43;;;;;;;21.67;8.73;;;;;;;;;;5142673;27;20443;-59
2023/07/03 10:03:10;;;;;;;19.50;8.75;;;;;;;;;;5142509;27;20274;-57
2023/07/03 10:05:37;;;;;;;17.35;8.32;;;;;;;;;;5143377;27;20233;-58
2023/07/03 10:08:04;;;;;;;18.48;8.75;;;;;;;;;;5143169;27;20458;-58
2023/07/03 10:10:33;;;;;;;15.77;8.05;;;;;;;;;;5142853;27;20513;-58
2023/07/03 10:13:02;;;;;;;18.42;7.93;;;;;;;;;;5142851;27;20570;-57
2023/07/03 10:15:31;;;;;;;14.90;7.38;;;;;;;;;;5142600;27;20209;-58
2023/07/03 10:17:58;;;;;;;13.57;6.75;;;;;;;;;;5142619;27;20529;-57
2023/07/03 10:20:27;;;;;;;13.38;6.65;;;;;;;;;;5142307;27;20205;-57
2023/07/03 10:22:54;;;;;;;16.15;7.00;;;;;;;;;;5142928;27;20209;-58
2023/07/03 10:25:22;;;;;;;12.20;6.30;;;;;;;;;;5142694;27;20541;-57
2023/07/03 10:27:49;;;;;;;9.95;5.95;;;;;;;;;;5142637;27;20229;-58
2023/07/03 10:30:18;;;;;;;11.90;5.47;;;;;;;;;;5142581;27;20209;-57
2023/07/03 10:32:45;;;;;;;13.80;5.72;;;;;;;;;;5141679;27;20213;-57
2023/07/03 10:35:15;;;;;;;14.70;6.78;;;;;;;;;;5142511;27;20451;-57
2023/07/03 10:37:45;;;;;;;9.75;5.72;;;;;;;;;;5142156;27;20213;-57
2023/07/03 10:40:15;;;;;;;17.10;6.20;;;;;;;;;;5135639;27;20220;-57
2023/07/03 10:42:43;;;;;;;14.32;6.00;;;;;;;;;;5140940;27;20201;-58
2023/07/03 10:45:12;;;;;;;11.90;5.53;;;;;;;;;;5142096;27;20198;-63
2023/07/03 10:47:40;;;;;;;16.73;6.57;;;;;;;;;;5142069;27;20206;-58
2023/07/03 10:50:08;;;;;;;15.70;6.22;;;;;;;;;;5142182;27;20245;-59
2023/07/03 10:52:37;;;;;;;15.05;6.47;;;;;;;;;;5142576;27;20214;-58
2023/07/03 10:55:10;;;;;;;12.90;6.10;;;;;;;;;;5141499;27;20229;-58
2023/07/03 10:57:39;;;;;;;11.45;5.55;;;;;;;;;;5141674;27;20202;-58
2023/07/03 11:00:07;;;;;;;15.40;5.18;;;;;;;;;;5141283;27;20214;-57
2023/07/03 11:02:38;;;;;;;13.02;5.10;;;;;;;;;;5141250;27;20240;-58
2023/07/03 11:05:09;;;;;;;12.60;4.93;;;;;;;;;;5142239;27;20202;-58
2023/07/03 11:07:38;;;;;;;9.48;4.35;;;;;;;;;;5141897;27;20213;-59
2023/07/03 11:10:09;;;;;;;6.38;4.38;;;;;;;;;;5141370;27;20206;-57
2023/07/03 11:12:38;;;;;;;8.38;4.75;;;;;;;;;;5141508;27;20718;-58
2023/07/03 11:15:11;;;;;;;8.98;4.53;;;;;;;;;;5141546;27;20229;-57
2023/07/03 11:17:40;;;;;;;9.88;4.78;;;;;;;;;;5141352;27;20221;-57
2023/07/03 11:20:09;;;;;;;9.55;4.30;;;;;;;;;;5141838;27;20434;-58
2023/07/03 11:22:40;;;;;;;9.60;4.55;;;;;;;;;;5140634;27;20202;-58
2023/07/03 11:25:12;;;;;;;6.97;4.15;;;;;;;;;;5135416;27;20206;-57
2023/07/03 11:27:40;;;;;;;10.05;3.85;;;;;;;;;;5141621;27;20447;-58
2023/07/03 11:30:08;;;;;;;8.73;3.67;;;;;;;;;;5141091;27;20213;-58
2023/07/03 11:32:35;;;;;;;8.65;3.55;;;;;;;;;;5140388;27;20440;-58
2023/07/03 11:35:02;;;;;;;8.73;3.55;;;;;;;;;;5141363;27;20217;-58
2023/07/03 11:37:33;;;;;;;6.72;3.53;;;;;;;;;;5141318;27;20206;-58
2023/07/03 11:40:19;;;;;;;6.28;3.60;;;;;;;;;;5141478;27;20206;-58
2023/07/03 11:42:47;;;;;;;7.63;3.20;;;;;;;;;;5139626;27;20205;-58
2023/07/03 11:45:25;;;;;;;5.38;3.05;;;;;;;;;;5141175;27;20509;-58
2023/07/03 11:47:52;;;;;;;5.70;3.10;;;;;;;;;;5140956;27;20202;-58
2023/07/03 11:50:26;;;;;;;9.80;3.97;;;;;;;;;;5141131;27;20206;-58
2023/07/03 11:52:52;;;;;;;5.05;3.28;;;;;;;;;;5132871;27;20201;-58
2023/07/03 11:55:21;;;;;;;8.82;3.15;;;;;;;;;;5141047;27;20225;-59
2023/07/03 11:57:55;;;;;;;4.30;2.85;;;;;;;;;;5140912;27;20202;-59
2023/07/03 12:00:24;;;;;;;6.05;3.67;;;;;;;;;;5140382;27;20220;-58
2023/07/03 12:02:53;;;;;;;5.32;3.78;;;;;;;;;;5141157;27;20452;-59
2023/07/03 12:05:34;;;;;;;6.38;3.22;;;;;;;;;;5141445;27;20202;-58
2023/07/03 12:08:00;;;;;;;6.03;3.47;;;;;;;;;;5127804;27;20229;-57
2023/07/03 12:10:46;;;;;;;7.38;3.88;;;;;;;;;;5140560;27;20379;-59
2023/07/03 12:13:33;;;;;;;7.15;3.90;;;;;;;;;;5140990;27;20581;-57
2023/07/03 12:16:02;;;;;;;6.03;3.30;;;;;;;;;;5141013;27;20489;-58
2023/07/03 12:18:28;;;;;;;9.18;3.47;;;;;;;;;;5140843;27;20201;-58
2023/07/03 12:20:58;;;;;;;5.80;3.22;;;;;;;;;;5140071;27;20205;-58
2023/07/03 12:23:32;;;;;;;4.82;3.55;;;;;;;;;;5141214;27;20206;-58
2023/07/03 12:26:00;;;;;;;11.10;3.67;;;;;;;;;;5137428;27;20407;-58
2023/07/03 12:28:26;;;;;;;8.52;4.07;;;;;;;;;;5137159;27;20540;-57
2023/07/03 12:31:08;;;;;;;6.55;3.60;;;;;;;;;;5135922;27;20405;-58
2023/07/03 12:33:34;;;;;;;7.05;3.95;;;;;;;;;;5137609;27;20535;-76
2023/07/03 12:36:01;;;;;;;8.48;4.70;;;;;;;;;;5137132;27;20228;-74
2023/07/03 12:38:27;;;;;;;11.02;4.65;;;;;;;;;;5138499;27;20212;-75
2023/07/03 12:40:53;;;;;;;9.55;4.20;;;;;;;;;;5137893;27;20395;-75
2023/07/03 12:43:20;;;;;;;11.68;5.25;;;;;;;;;;5137690;27;20210;-75
2023/07/03 12:45:51;;;;;;;12.90;5.30;;;;;;;;;;5136623;27;20236;-74
2023/07/03 12:48:19;;;;;;;7.93;4.80;;;;;;;;;;5136731;27;20502;-74
2023/07/03 12:50:47;;;;;;;11.23;5.00;;;;;;;;;;5137216;27;20217;-75
2023/07/03 12:53:13;;;;;;;12.25;5.88;;;;;;;;;;5136904;27;20210;-75
2023/07/03 12:55:40;;;;;;;8.13;4.65;;;;;;;;;;5140871;27;20218;-75
2023/07/03 12:58:07;;;;;;;10.05;3.72;;;;;;;;;;5141179;27;20210;-75
2023/07/03 13:00:34;;;;;;;8.68;4.00;;;;;;;;;;5140723;27;20227;-75
2023/07/03 13:03:01;;;;;;;7.18;4.25;;;;;;;;;;5141194;27;20209;-75
2023/07/03 13:05:31;;;;;;;11.48;4.30;;;;;;;;;;5141454;27;20371;-75
2023/07/03 13:07:57;;;;;;;6.72;4.10;;;;;;;;;;5141353;27;20410;-75
2023/07/03 13:10:24;;;;;;;9.40;4.05;;;;;;;;;;5140961;27;20566;-75
2023/07/03 13:13:04;;;;;;;5.65;3.70;;;;;;;;;;5141135;27;20408;-75
2023/07/03 13:15:31;;;;;;;8.13;4.30;;;;;;;;;;5140753;27;20225;-75
2023/07/03 13:18:03;;;;;;;5.88;3.75;;;;;;;;;;5141077;27;20213;-75
2023/07/03 13:20:30;;;;;;;11.35;3.78;;;;;;;;;;5140909;27;20210;-75
2023/07/03 13:22:58;;;;;;;11.90;3.42;;;;;;;;;;5140491;27;20476;-75
2023/07/03 13:25:31;;;;;;;9.80;4.35;;;;;;;;;;5140502;27;20541;-75
2023/07/03 13:27:58;;;;;;;7.53;3.67;;;;;;;;;;5140649;27;20572;-75
2023/07/03 13:30:25;;;;;;;5.55;3.58;;;;;;;;;;5140517;27;20205;-75
2023/07/03 13:32:57;;;;;;;6.95;2.78;;;;;;;;;;5139980;27;20205;-75
2023/07/03 13:35:27;;;;;;;4.32;2.90;;;;;;;;;;5140812;27;20282;-75
2023/07/03 13:38:08;;;;;;;3.85;3.00;;;;;;;;;;5140403;27;20278;-75
2023/07/03 13:40:34;;;;;;;6.13;3.03;;;;;;;;;;5140782;27;20212;-75
2023/07/03 13:43:01;;;;;;;3.72;3.00;;;;;;;;;;5140582;27;20217;-75
2023/07/03 13:45:28;;;;;;;7.35;3.60;;;;;;;;;;5140261;27;20194;-75
2023/07/03 13:47:54;;;;;;;6.43;3.00;;;;;;;;;;5140449;27;20213;-75
2023/07/03 13:50:20;;;;;;;4.40;2.50;;;;;;;;;;5139432;27;20229;-75
2023/07/03 13:52:47;;;;;;;5.03;2.90;;;;;;;;;;5140286;27;20206;-75
2023/07/03 13:55:14;;;;;;;4.57;2.90;;;;;;;;;;5140402;27;20228;-75
2023/07/03 13:57:41;;;;;;;5.32;2.40;;;;;;;;;;5139783;27;20284;-75
2023/07/03 14:00:08;;;;;;;4.65;2.45;;;;;;;;;;5139950;27;20218;-75
2023/07/03 14:02:34;;;;;;;4.70;2.60;;;;;;;;;;5139407;27;20206;-75
2023/07/03 14:05:00;;;;;;;5.75;2.90;;;;;;;;;;5140144;27;20206;-75
2023/07/03 14:07:26;;;;;;;3.42;2.35;;;;;;;;;;5139385;27;20206;-75
2023/07/03 14:09:55;;;;;;;4.53;2.15;;;;;;;;;;5140093;27;20533;-75
2023/07/03 14:12:22;;;;;;;5.00;2.47;;;;;;;;;;5140140;27;20442;-75
2023/07/03 14:14:49;;;;;;;4.53;2.33;;;;;;;;;;5139375;27;20237;-75
2023/07/03 14:17:15;;;;;;;5.43;2.00;;;;;;;;;;5139367;27;20674;-75
2023/07/03 14:19:41;;;;;;;4.78;2.35;;;;;;;;;;5139893;27;20206;-75
2023/07/03 14:22:08;;;;;;;3.15;2.38;;;;;;;;;;5139301;27;20536;-75
2023/07/03 14:24:35;;;;;;;3.53;2.33;;;;;;;;;;5139383;27;20478;-75
2023/07/03 14:27:01;;;;;;;2.88;1.77;;;;;;;;;;5139650;27;20206;-75
2023/07/03 14:29:29;;;;;;;5.25;2.05;;;;;;;;;;5139135;27;20294;-75